Wednesday, October 17, 2018, 12:35 PM EDT
Back to Local

KACY, Atlantic City International

Location: Absecon, NJ, United States Lat: 39.467
Local Time: 12:35 PM EDT (16:35 GMT) Lon: -74.583
Time Zone: US/Eastern Elev: 75 ft

Show me the last for .
Show Decoded

2018-10-17 11:54 METAR KACY 171554Z 25009KT 10SM CLR 17/04 A3001 RMK AO2 SLP163 T01720039 =
2018-10-17 10:54 METAR KACY 171454Z 28010G20KT 10SM CLR 16/04 A3003 RMK AO2 SLP168 T01610044
                 58006 =
2018-10-17 09:54 METAR KACY 171354Z AUTO 27007KT 10SM CLR 13/06 A3004 RMK AO2 SLP172 T01330061 =
2018-10-17 08:54 METAR KACY 171254Z AUTO 28007KT 10SM CLR 13/07 A3005 RMK AO2 SLP175 T01280072 =
2018-10-17 07:54 METAR KACY 171154Z 29005KT 10SM CLR 11/08 A3005 RMK AO2 SLP174 T01110083 10133
                 20106 50003 =
2018-10-17 06:54 METAR KACY 171054Z 29007KT 10SM FEW029 SCT036 12/09 A3005 RMK AO2 SLP174
                 T01220094 =
2018-10-17 05:54 METAR KACY 170954Z 26003KT 10SM FEW023 OVC036 13/10 A3004 RMK AO2 SLP172
                 T01280100 =
2018-10-17 04:54 METAR KACY 170854Z 24003KT 10SM FEW034 SCT043 12/09 A3004 RMK AO2 SLP171
                 T01220094 56012 =
2018-10-17 03:54 METAR KACY 170754Z 21003KT 10SM OVC049 13/09 A3004 RMK AO2 SLP172 T01280089 =
2018-10-17 02:54 METAR KACY 170654Z 00000KT 10SM OVC047 12/09 A3005 RMK AO2 SLP177 T01220089 =
2018-10-17 01:54 METAR KACY 170554Z 00000KT 10SM BKN050 12/07 A3007 RMK AO2 SLP182 T01170072
                 10122 20106 58010 =
2018-10-16 23:54 METAR KACY 170354Z 25004KT 10SM CLR 12/07 A3010 RMK AO2 SLP192 T01220072 =
2018-10-16 22:54 METAR KACY 170254Z 25004KT 10SM CLR 12/07 A3010 RMK AO2 SLP192 T01220072 56004 =
2018-10-16 21:54 METAR KACY 170154Z 22003KT 10SM CLR 12/08 A3011 RMK AO2 SLP195 T01170078 =
2018-10-16 20:54 METAR KACY 170054Z 21003KT 10SM CLR 11/07 A3010 RMK AO2 SLP193 T01110072 =
2018-10-16 19:54 METAR KACY 162354Z 22003KT 10SM CLR 12/07 A3011 RMK AO2 SLP196 T01220067 10167
                 20122 51005 =
2018-10-16 18:54 METAR KACY 162254Z 26004KT 10SM CLR 13/06 A3011 RMK AO2 SLP195 T01330056 =
2018-10-16 17:54 METAR KACY 162154Z 28006KT 10SM CLR 14/06 A3011 RMK AO2 SLP195 T01390056 =
2018-10-16 16:54 METAR KACY 162054Z 25009KT 10SM CLR 16/03 A3010 RMK AO2 SLP191 T01560033 56010 =
2018-10-16 15:54 METAR KACY 161954Z 24006KT 10SM CLR 16/04 A3010 RMK AO2 SLP192 T01610039 =
2018-10-16 14:54 METAR KACY 161854Z 29008KT 10SM CLR 16/02 A3012 RMK AO2 SLP198 T01610022 =
2018-10-16 13:54 METAR KACY 161754Z 30009KT 10SM CLR 16/03 A3013 RMK AO2 SLP201 T01610033 10167
                 20122 58021 =
2018-10-16 12:54 METAR KACY 161654Z 29003KT 10SM CLR 15/05 A3017 RMK AO2 SLP214 T01500050 =

Support USWX by starting your Amazon purchase here.